sensor_id;sensor_type;location;lat;lon;timestamp;P1;durP1;ratioP1;P2;durP2;ratioP2
6105;SDS011;3083;51.508;7.966;2022-07-30T00:01:07;21.13;;;13.10;;
6105;SDS011;3083;51.508;7.966;2022-07-30T00:03:34;22.63;;;12.80;;
6105;SDS011;3083;51.508;7.966;2022-07-30T00:06:03;24.17;;;14.60;;
6105;SDS011;3083;51.508;7.966;2022-07-30T00:08:31;27.40;;;14.30;;
6105;SDS011;3083;51.508;7.966;2022-07-30T00:10:57;18.60;;;12.37;;
6105;SDS011;3083;51.508;7.966;2022-07-30T00:13:24;20.80;;;12.43;;
6105;SDS011;3083;51.508;7.966;2022-07-30T00:15:51;15.90;;;11.40;;
6105;SDS011;3083;51.508;7.966;2022-07-30T00:18:18;17.13;;;12.23;;
6105;SDS011;3083;51.508;7.966;2022-07-30T00:20:45;17.20;;;11.10;;
6105;SDS011;3083;51.508;7.966;2022-07-30T00:23:14;16.23;;;10.90;;
6105;SDS011;3083;51.508;7.966;2022-07-30T00:25:41;20.17;;;11.87;;
6105;SDS011;3083;51.508;7.966;2022-07-30T00:28:08;22.03;;;11.70;;
6105;SDS011;3083;51.508;7.966;2022-07-30T00:30:35;21.20;;;12.03;;
6105;SDS011;3083;51.508;7.966;2022-07-30T00:33:04;16.60;;;12.07;;
6105;SDS011;3083;51.508;7.966;2022-07-30T00:35:31;19.30;;;13.10;;
6105;SDS011;3083;51.508;7.966;2022-07-30T00:37:58;20.67;;;12.40;;
6105;SDS011;3083;51.508;7.966;2022-07-30T00:40:27;18.63;;;11.63;;
6105;SDS011;3083;51.508;7.966;2022-07-30T00:42:54;16.20;;;10.80;;
6105;SDS011;3083;51.508;7.966;2022-07-30T00:45:21;21.40;;;10.67;;
6105;SDS011;3083;51.508;7.966;2022-07-30T00:47:48;17.43;;;10.33;;
6105;SDS011;3083;51.508;7.966;2022-07-30T00:50:15;20.07;;;10.50;;
6105;SDS011;3083;51.508;7.966;2022-07-30T00:52:42;18.93;;;11.67;;
6105;SDS011;3083;51.508;7.966;2022-07-30T00:55:10;22.60;;;12.07;;
6105;SDS011;3083;51.508;7.966;2022-07-30T00:57:40;20.00;;;10.80;;
6105;SDS011;3083;51.508;7.966;2022-07-30T01:00:09;16.73;;;10.87;;
6105;SDS011;3083;51.508;7.966;2022-07-30T01:02:38;16.83;;;10.83;;
6105;SDS011;3083;51.508;7.966;2022-07-30T01:05:05;21.10;;;11.60;;
6105;SDS011;3083;51.508;7.966;2022-07-30T01:07:33;18.37;;;11.93;;
6105;SDS011;3083;51.508;7.966;2022-07-30T01:10:00;15.67;;;11.70;;
6105;SDS011;3083;51.508;7.966;2022-07-30T01:12:27;16.23;;;10.67;;
6105;SDS011;3083;51.508;7.966;2022-07-30T01:14:56;19.83;;;11.47;;
6105;SDS011;3083;51.508;7.966;2022-07-30T01:17:23;13.70;;;10.50;;
6105;SDS011;3083;51.508;7.966;2022-07-30T01:19:51;18.00;;;10.50;;
6105;SDS011;3083;51.508;7.966;2022-07-30T01:22:32;23.17;;;10.13;;
6105;SDS011;3083;51.508;7.966;2022-07-30T01:25:08;16.53;;;9.80;;
6105;SDS011;3083;51.508;7.966;2022-07-30T01:27:44;15.40;;;10.50;;
6105;SDS011;3083;51.508;7.966;2022-07-30T01:30:16;19.00;;;10.70;;
6105;SDS011;3083;51.508;7.966;2022-07-30T01:32:45;13.20;;;10.07;;
6105;SDS011;3083;51.508;7.966;2022-07-30T01:35:14;17.23;;;10.40;;
6105;SDS011;3083;51.508;7.966;2022-07-30T01:37:43;16.90;;;10.37;;
6105;SDS011;3083;51.508;7.966;2022-07-30T01:40:12;20.63;;;13.60;;
6105;SDS011;3083;51.508;7.966;2022-07-30T01:42:39;18.73;;;13.20;;
6105;SDS011;3083;51.508;7.966;2022-07-30T01:45:10;19.23;;;13.50;;
6105;SDS011;3083;51.508;7.966;2022-07-30T01:47:39;22.67;;;14.17;;
6105;SDS011;3083;51.508;7.966;2022-07-30T01:50:08;19.13;;;13.80;;
6105;SDS011;3083;51.508;7.966;2022-07-30T01:52:39;19.60;;;13.80;;
6105;SDS011;3083;51.508;7.966;2022-07-30T01:55:09;19.63;;;14.00;;
6105;SDS011;3083;51.508;7.966;2022-07-30T01:57:40;20.00;;;13.90;;
6105;SDS011;3083;51.508;7.966;2022-07-30T02:00:09;24.43;;;14.40;;
6105;SDS011;3083;51.508;7.966;2022-07-30T02:02:37;18.40;;;13.83;;
6105;SDS011;3083;51.508;7.966;2022-07-30T02:05:05;21.57;;;13.40;;
6105;SDS011;3083;51.508;7.966;2022-07-30T02:07:34;17.23;;;13.30;;
6105;SDS011;3083;51.508;7.966;2022-07-30T02:10:06;20.20;;;13.47;;
6105;SDS011;3083;51.508;7.966;2022-07-30T02:12:37;17.93;;;13.87;;
6105;SDS011;3083;51.508;7.966;2022-07-30T02:15:12;20.13;;;14.87;;
6105;SDS011;3083;51.508;7.966;2022-07-30T02:17:45;23.97;;;14.13;;
6105;SDS011;3083;51.508;7.966;2022-07-30T02:20:19;20.73;;;13.87;;
6105;SDS011;3083;51.508;7.966;2022-07-30T02:22:48;24.40;;;14.20;;
6105;SDS011;3083;51.508;7.966;2022-07-30T02:25:19;22.90;;;13.23;;
6105;SDS011;3083;51.508;7.966;2022-07-30T02:27:48;18.20;;;13.70;;
6105;SDS011;3083;51.508;7.966;2022-07-30T02:30:20;21.70;;;13.83;;
6105;SDS011;3083;51.508;7.966;2022-07-30T02:32:50;23.00;;;14.60;;
6105;SDS011;3083;51.508;7.966;2022-07-30T02:35:20;22.97;;;13.53;;
6105;SDS011;3083;51.508;7.966;2022-07-30T02:37:51;20.80;;;15.00;;
6105;SDS011;3083;51.508;7.966;2022-07-30T02:40:19;22.17;;;14.63;;
6105;SDS011;3083;51.508;7.966;2022-07-30T02:42:49;21.63;;;13.53;;
6105;SDS011;3083;51.508;7.966;2022-07-30T02:45:18;23.23;;;14.00;;
6105;SDS011;3083;51.508;7.966;2022-07-30T02:47:49;28.70;;;14.40;;
6105;SDS011;3083;51.508;7.966;2022-07-30T02:50:22;17.47;;;13.73;;
6105;SDS011;3083;51.508;7.966;2022-07-30T02:52:52;21.70;;;12.97;;
6105;SDS011;3083;51.508;7.966;2022-07-30T02:55:20;19.87;;;12.53;;
6105;SDS011;3083;51.508;7.966;2022-07-30T02:57:50;21.93;;;12.73;;
6105;SDS011;3083;51.508;7.966;2022-07-30T03:00:21;18.27;;;12.00;;
6105;SDS011;3083;51.508;7.966;2022-07-30T03:02:50;23.57;;;13.53;;
6105;SDS011;3083;51.508;7.966;2022-07-30T03:05:19;25.27;;;13.33;;
6105;SDS011;3083;51.508;7.966;2022-07-30T03:07:46;16.80;;;12.43;;
6105;SDS011;3083;51.508;7.966;2022-07-30T03:10:13;22.40;;;13.80;;
6105;SDS011;3083;51.508;7.966;2022-07-30T03:12:43;20.83;;;13.97;;
6105;SDS011;3083;51.508;7.966;2022-07-30T03:15:11;17.10;;;13.07;;
6105;SDS011;3083;51.508;7.966;2022-07-30T03:17:41;21.63;;;14.40;;
6105;SDS011;3083;51.508;7.966;2022-07-30T03:20:10;19.60;;;13.10;;
6105;SDS011;3083;51.508;7.966;2022-07-30T03:22:40;23.33;;;13.03;;
6105;SDS011;3083;51.508;7.966;2022-07-30T03:25:09;20.00;;;13.73;;
6105;SDS011;3083;51.508;7.966;2022-07-30T03:27:39;26.50;;;15.50;;
6105;SDS011;3083;51.508;7.966;2022-07-30T03:30:08;23.23;;;16.27;;
6105;SDS011;3083;51.508;7.966;2022-07-30T03:32:36;20.57;;;15.87;;
6105;SDS011;3083;51.508;7.966;2022-07-30T03:35:06;23.50;;;16.40;;
6105;SDS011;3083;51.508;7.966;2022-07-30T03:37:34;23.10;;;15.80;;
6105;SDS011;3083;51.508;7.966;2022-07-30T03:40:03;20.20;;;15.17;;
6105;SDS011;3083;51.508;7.966;2022-07-30T03:42:33;19.70;;;14.63;;
6105;SDS011;3083;51.508;7.966;2022-07-30T03:45:02;20.63;;;14.57;;
6105;SDS011;3083;51.508;7.966;2022-07-30T03:47:29;27.77;;;14.93;;
6105;SDS011;3083;51.508;7.966;2022-07-30T03:49:59;21.20;;;13.90;;
6105;SDS011;3083;51.508;7.966;2022-07-30T03:52:28;19.40;;;14.53;;
6105;SDS011;3083;51.508;7.966;2022-07-30T03:54:55;28.00;;;15.70;;
6105;SDS011;3083;51.508;7.966;2022-07-30T03:57:22;22.63;;;15.87;;
6105;SDS011;3083;51.508;7.966;2022-07-30T03:59:50;25.20;;;16.57;;
6105;SDS011;3083;51.508;7.966;2022-07-30T04:02:18;24.27;;;16.20;;
6105;SDS011;3083;51.508;7.966;2022-07-30T04:04:45;27.20;;;16.63;;
6105;SDS011;3083;51.508;7.966;2022-07-30T04:07:12;23.27;;;16.00;;
6105;SDS011;3083;51.508;7.966;2022-07-30T04:09:40;28.03;;;16.90;;
6105;SDS011;3083;51.508;7.966;2022-07-30T04:12:07;28.20;;;16.93;;
6105;SDS011;3083;51.508;7.966;2022-07-30T04:14:37;21.60;;;15.90;;
6105;SDS011;3083;51.508;7.966;2022-07-30T04:17:07;28.33;;;18.10;;
6105;SDS011;3083;51.508;7.966;2022-07-30T04:19:39;27.30;;;18.83;;
6105;SDS011;3083;51.508;7.966;2022-07-30T04:22:10;28.17;;;18.33;;
6105;SDS011;3083;51.508;7.966;2022-07-30T04:24:41;25.57;;;17.70;;
6105;SDS011;3083;51.508;7.966;2022-07-30T04:27:10;25.57;;;18.73;;
6105;SDS011;3083;51.508;7.966;2022-07-30T04:29:37;23.67;;;17.37;;
6105;SDS011;3083;51.508;7.966;2022-07-30T04:32:05;26.00;;;16.57;;
6105;SDS011;3083;51.508;7.966;2022-07-30T04:34:33;20.30;;;15.90;;
6105;SDS011;3083;51.508;7.966;2022-07-30T04:37:01;25.43;;;17.90;;
6105;SDS011;3083;51.508;7.966;2022-07-30T04:39:28;24.40;;;16.63;;
6105;SDS011;3083;51.508;7.966;2022-07-30T04:41:57;26.20;;;17.00;;
6105;SDS011;3083;51.508;7.966;2022-07-30T04:44:24;23.83;;;16.90;;
6105;SDS011;3083;51.508;7.966;2022-07-30T04:46:51;21.03;;;16.20;;
6105;SDS011;3083;51.508;7.966;2022-07-30T04:49:18;23.13;;;17.03;;
6105;SDS011;3083;51.508;7.966;2022-07-30T04:51:46;23.77;;;17.30;;
6105;SDS011;3083;51.508;7.966;2022-07-30T04:54:14;31.20;;;17.77;;
6105;SDS011;3083;51.508;7.966;2022-07-30T04:56:44;29.63;;;17.50;;
6105;SDS011;3083;51.508;7.966;2022-07-30T04:59:14;25.43;;;17.80;;
6105;SDS011;3083;51.508;7.966;2022-07-30T05:01:43;26.70;;;17.47;;
6105;SDS011;3083;51.508;7.966;2022-07-30T05:04:13;22.47;;;16.17;;
6105;SDS011;3083;51.508;7.966;2022-07-30T05:06:41;25.17;;;16.87;;
6105;SDS011;3083;51.508;7.966;2022-07-30T05:09:09;21.73;;;16.70;;
6105;SDS011;3083;51.508;7.966;2022-07-30T05:11:37;26.47;;;16.33;;
6105;SDS011;3083;51.508;7.966;2022-07-30T05:14:04;30.73;;;16.53;;
6105;SDS011;3083;51.508;7.966;2022-07-30T05:16:32;23.40;;;16.63;;
6105;SDS011;3083;51.508;7.966;2022-07-30T05:18:59;24.03;;;16.70;;
6105;SDS011;3083;51.508;7.966;2022-07-30T05:21:26;24.40;;;16.50;;
6105;SDS011;3083;51.508;7.966;2022-07-30T05:23:53;22.03;;;16.10;;
6105;SDS011;3083;51.508;7.966;2022-07-30T05:26:20;24.20;;;16.20;;
6105;SDS011;3083;51.508;7.966;2022-07-30T05:28:47;25.53;;;17.10;;
6105;SDS011;3083;51.508;7.966;2022-07-30T05:31:14;24.57;;;16.73;;
6105;SDS011;3083;51.508;7.966;2022-07-30T05:33:42;28.17;;;17.80;;
6105;SDS011;3083;51.508;7.966;2022-07-30T05:36:09;22.90;;;17.13;;
6105;SDS011;3083;51.508;7.966;2022-07-30T05:38:36;20.83;;;15.00;;
6105;SDS011;3083;51.508;7.966;2022-07-30T05:41:03;27.60;;;16.83;;
6105;SDS011;3083;51.508;7.966;2022-07-30T05:43:30;25.00;;;16.47;;
6105;SDS011;3083;51.508;7.966;2022-07-30T05:45:57;20.80;;;15.90;;
6105;SDS011;3083;51.508;7.966;2022-07-30T05:48:24;23.70;;;16.07;;
6105;SDS011;3083;51.508;7.966;2022-07-30T05:50:53;18.67;;;14.13;;
6105;SDS011;3083;51.508;7.966;2022-07-30T05:53:20;28.60;;;15.03;;
6105;SDS011;3083;51.508;7.966;2022-07-30T05:55:47;21.53;;;13.60;;
6105;SDS011;3083;51.508;7.966;2022-07-30T05:58:14;20.33;;;15.27;;
6105;SDS011;3083;51.508;7.966;2022-07-30T06:00:41;20.53;;;12.90;;
6105;SDS011;3083;51.508;7.966;2022-07-30T06:03:08;17.23;;;13.20;;
6105;SDS011;3083;51.508;7.966;2022-07-30T06:05:35;17.13;;;12.07;;
6105;SDS011;3083;51.508;7.966;2022-07-30T06:08:04;17.93;;;11.63;;
6105;SDS011;3083;51.508;7.966;2022-07-30T06:10:31;19.80;;;13.20;;
6105;SDS011;3083;51.508;7.966;2022-07-30T06:12:58;18.27;;;12.60;;
6105;SDS011;3083;51.508;7.966;2022-07-30T06:15:25;15.40;;;11.70;;
6105;SDS011;3083;51.508;7.966;2022-07-30T06:17:52;15.90;;;11.53;;
6105;SDS011;3083;51.508;7.966;2022-07-30T06:20:19;15.37;;;11.37;;
6105;SDS011;3083;51.508;7.966;2022-07-30T06:22:46;18.33;;;11.50;;
6105;SDS011;3083;51.508;7.966;2022-07-30T06:25:15;19.63;;;12.17;;
6105;SDS011;3083;51.508;7.966;2022-07-30T06:27:42;16.90;;;11.20;;
6105;SDS011;3083;51.508;7.966;2022-07-30T06:30:09;17.50;;;11.73;;
6105;SDS011;3083;51.508;7.966;2022-07-30T06:32:37;15.80;;;11.27;;
6105;SDS011;3083;51.508;7.966;2022-07-30T06:35:04;16.70;;;11.90;;
6105;SDS011;3083;51.508;7.966;2022-07-30T06:37:32;15.10;;;11.70;;
6105;SDS011;3083;51.508;7.966;2022-07-30T06:39:59;17.60;;;11.33;;
6105;SDS011;3083;51.508;7.966;2022-07-30T06:42:27;13.33;;;11.30;;
6105;SDS011;3083;51.508;7.966;2022-07-30T06:44:54;14.30;;;11.80;;
6105;SDS011;3083;51.508;7.966;2022-07-30T06:47:21;13.33;;;11.23;;
6105;SDS011;3083;51.508;7.966;2022-07-30T06:49:50;14.63;;;11.70;;
6105;SDS011;3083;51.508;7.966;2022-07-30T06:52:18;16.50;;;11.90;;
6105;SDS011;3083;51.508;7.966;2022-07-30T06:54:45;16.30;;;11.40;;
6105;SDS011;3083;51.508;7.966;2022-07-30T06:57:12;18.10;;;11.50;;
6105;SDS011;3083;51.508;7.966;2022-07-30T06:59:41;16.00;;;11.87;;
6105;SDS011;3083;51.508;7.966;2022-07-30T07:02:08;15.03;;;11.90;;
6105;SDS011;3083;51.508;7.966;2022-07-30T07:04:35;15.97;;;11.00;;
6105;SDS011;3083;51.508;7.966;2022-07-30T07:07:02;15.63;;;10.47;;
6105;SDS011;3083;51.508;7.966;2022-07-30T07:09:29;14.07;;;10.80;;
6105;SDS011;3083;51.508;7.966;2022-07-30T07:11:55;16.90;;;10.77;;
6105;SDS011;3083;51.508;7.966;2022-07-30T07:14:22;17.00;;;10.50;;
6105;SDS011;3083;51.508;7.966;2022-07-30T07:16:52;13.83;;;11.60;;
6105;SDS011;3083;51.508;7.966;2022-07-30T07:19:19;12.60;;;10.00;;
6105;SDS011;3083;51.508;7.966;2022-07-30T07:21:46;12.00;;;10.20;;
6105;SDS011;3083;51.508;7.966;2022-07-30T07:24:12;14.43;;;10.40;;
6105;SDS011;3083;51.508;7.966;2022-07-30T07:26:39;13.83;;;9.40;;
6105;SDS011;3083;51.508;7.966;2022-07-30T07:29:06;11.20;;;9.53;;
6105;SDS011;3083;51.508;7.966;2022-07-30T07:31:33;12.63;;;9.90;;
6105;SDS011;3083;51.508;7.966;2022-07-30T07:34:02;15.77;;;10.07;;
6105;SDS011;3083;51.508;7.966;2022-07-30T07:36:29;12.23;;;9.40;;
6105;SDS011;3083;51.508;7.966;2022-07-30T07:38:56;13.20;;;9.50;;
6105;SDS011;3083;51.508;7.966;2022-07-30T07:41:23;12.30;;;9.00;;
6105;SDS011;3083;51.508;7.966;2022-07-30T07:43:50;9.93;;;8.83;;
6105;SDS011;3083;51.508;7.966;2022-07-30T07:46:17;11.47;;;8.10;;
6105;SDS011;3083;51.508;7.966;2022-07-30T07:48:44;11.83;;;7.73;;
6105;SDS011;3083;51.508;7.966;2022-07-30T07:51:12;13.37;;;7.87;;
6105;SDS011;3083;51.508;7.966;2022-07-30T07:53:39;11.13;;;7.47;;
6105;SDS011;3083;51.508;7.966;2022-07-30T07:56:06;11.20;;;7.90;;
6105;SDS011;3083;51.508;7.966;2022-07-30T07:58:33;12.53;;;9.33;;
6105;SDS011;3083;51.508;7.966;2022-07-30T08:01:00;10.23;;;8.37;;
6105;SDS011;3083;51.508;7.966;2022-07-30T08:03:27;10.43;;;6.93;;
6105;SDS011;3083;51.508;7.966;2022-07-30T08:05:54;11.10;;;7.93;;
6105;SDS011;3083;51.508;7.966;2022-07-30T08:08:22;8.93;;;7.20;;
6105;SDS011;3083;51.508;7.966;2022-07-30T08:10:50;11.50;;;8.40;;
6105;SDS011;3083;51.508;7.966;2022-07-30T08:13:17;12.60;;;8.70;;
6105;SDS011;3083;51.508;7.966;2022-07-30T08:15:43;11.03;;;8.37;;
6105;SDS011;3083;51.508;7.966;2022-07-30T08:18:10;13.03;;;9.10;;
6105;SDS011;3083;51.508;7.966;2022-07-30T08:20:38;11.50;;;9.03;;
6105;SDS011;3083;51.508;7.966;2022-07-30T08:23:05;13.83;;;9.50;;
6105;SDS011;3083;51.508;7.966;2022-07-30T08:25:34;12.87;;;9.80;;
6105;SDS011;3083;51.508;7.966;2022-07-30T08:28:01;10.90;;;8.30;;
6105;SDS011;3083;51.508;7.966;2022-07-30T08:30:28;13.90;;;9.80;;
6105;SDS011;3083;51.508;7.966;2022-07-30T08:32:55;13.93;;;10.43;;
6105;SDS011;3083;51.508;7.966;2022-07-30T08:35:23;13.47;;;11.10;;
6105;SDS011;3083;51.508;7.966;2022-07-30T08:37:50;15.27;;;10.90;;
6105;SDS011;3083;51.508;7.966;2022-07-30T08:40:17;13.33;;;10.90;;
6105;SDS011;3083;51.508;7.966;2022-07-30T08:42:46;14.50;;;10.63;;
6105;SDS011;3083;51.508;7.966;2022-07-30T08:45:13;18.37;;;10.90;;
6105;SDS011;3083;51.508;7.966;2022-07-30T08:47:44;16.80;;;11.40;;
6105;SDS011;3083;51.508;7.966;2022-07-30T08:50:12;18.10;;;11.80;;
6105;SDS011;3083;51.508;7.966;2022-07-30T08:52:39;17.70;;;10.70;;
6105;SDS011;3083;51.508;7.966;2022-07-30T08:55:07;18.67;;;11.87;;
6105;SDS011;3083;51.508;7.966;2022-07-30T08:57:34;20.10;;;12.27;;
6105;SDS011;3083;51.508;7.966;2022-07-30T09:00:04;15.90;;;12.70;;
6105;SDS011;3083;51.508;7.966;2022-07-30T09:02:32;13.67;;;11.07;;
6105;SDS011;3083;51.508;7.966;2022-07-30T09:05:00;13.33;;;11.20;;
6105;SDS011;3083;51.508;7.966;2022-07-30T09:07:27;16.70;;;10.27;;
6105;SDS011;3083;51.508;7.966;2022-07-30T09:09:55;17.20;;;11.00;;
6105;SDS011;3083;51.508;7.966;2022-07-30T09:12:35;21.63;;;12.50;;
6105;SDS011;3083;51.508;7.966;2022-07-30T09:15:06;17.17;;;13.33;;
6105;SDS011;3083;51.508;7.966;2022-07-30T09:17:49;16.47;;;12.40;;
6105;SDS011;3083;51.508;7.966;2022-07-30T09:20:18;14.17;;;11.03;;
6105;SDS011;3083;51.508;7.966;2022-07-30T09:22:46;22.10;;;13.37;;
6105;SDS011;3083;51.508;7.966;2022-07-30T09:25:14;16.23;;;12.60;;
6105;SDS011;3083;51.508;7.966;2022-07-30T09:27:49;17.60;;;12.50;;
6105;SDS011;3083;51.508;7.966;2022-07-30T09:30:17;17.30;;;12.50;;
6105;SDS011;3083;51.508;7.966;2022-07-30T09:32:47;15.40;;;11.37;;
6105;SDS011;3083;51.508;7.966;2022-07-30T09:35:16;19.47;;;13.40;;
6105;SDS011;3083;51.508;7.966;2022-07-30T09:37:43;16.60;;;13.20;;
6105;SDS011;3083;51.508;7.966;2022-07-30T09:40:12;20.20;;;13.53;;
6105;SDS011;3083;51.508;7.966;2022-07-30T09:42:40;18.60;;;13.20;;
6105;SDS011;3083;51.508;7.966;2022-07-30T09:45:08;15.90;;;11.60;;
6105;SDS011;3083;51.508;7.966;2022-07-30T09:47:39;20.27;;;12.80;;
6105;SDS011;3083;51.508;7.966;2022-07-30T09:50:08;22.63;;;16.30;;
6105;SDS011;3083;51.508;7.966;2022-07-30T09:52:37;17.70;;;11.97;;
6105;SDS011;3083;51.508;7.966;2022-07-30T09:55:05;18.70;;;10.13;;
6105;SDS011;3083;51.508;7.966;2022-07-30T09:57:33;18.20;;;12.97;;
6105;SDS011;3083;51.508;7.966;2022-07-30T10:00:15;19.10;;;12.80;;
6105;SDS011;3083;51.508;7.966;2022-07-30T10:02:45;20.63;;;11.97;;
6105;SDS011;3083;51.508;7.966;2022-07-30T10:05:14;14.50;;;10.60;;
6105;SDS011;3083;51.508;7.966;2022-07-30T10:07:46;15.07;;;11.27;;
6105;SDS011;3083;51.508;7.966;2022-07-30T10:10:19;16.83;;;8.87;;
6105;SDS011;3083;51.508;7.966;2022-07-30T10:12:49;14.27;;;9.80;;
6105;SDS011;3083;51.508;7.966;2022-07-30T10:15:18;16.33;;;11.57;;
6105;SDS011;3083;51.508;7.966;2022-07-30T10:17:48;17.27;;;12.30;;
6105;SDS011;3083;51.508;7.966;2022-07-30T10:20:15;22.27;;;13.60;;
6105;SDS011;3083;51.508;7.966;2022-07-30T10:22:43;16.23;;;12.53;;
6105;SDS011;3083;51.508;7.966;2022-07-30T10:25:10;18.03;;;11.57;;
6105;SDS011;3083;51.508;7.966;2022-07-30T10:27:38;13.97;;;9.80;;
6105;SDS011;3083;51.508;7.966;2022-07-30T10:30:06;19.13;;;10.80;;
6105;SDS011;3083;51.508;7.966;2022-07-30T10:32:33;15.80;;;9.90;;
6105;SDS011;3083;51.508;7.966;2022-07-30T10:35:04;12.13;;;8.43;;
6105;SDS011;3083;51.508;7.966;2022-07-30T10:37:33;14.03;;;7.30;;
6105;SDS011;3083;51.508;7.966;2022-07-30T10:40:04;15.77;;;8.97;;
6105;SDS011;3083;51.508;7.966;2022-07-30T10:42:42;13.93;;;8.03;;
6105;SDS011;3083;51.508;7.966;2022-07-30T10:45:26;13.43;;;8.40;;
6105;SDS011;3083;51.508;7.966;2022-07-30T10:48:07;13.63;;;7.10;;
6105;SDS011;3083;51.508;7.966;2022-07-30T10:50:35;10.20;;;6.37;;
6105;SDS011;3083;51.508;7.966;2022-07-30T10:56:09;16.80;;;10.43;;
6105;SDS011;3083;51.508;7.966;2022-07-30T11:01:23;14.43;;;10.13;;
6105;SDS011;3083;51.508;7.966;2022-07-30T11:06:46;17.10;;;10.50;;
6105;SDS011;3083;51.508;7.966;2022-07-30T11:12:00;17.70;;;10.60;;
6105;SDS011;3083;51.508;7.966;2022-07-30T11:17:22;13.40;;;9.83;;
6105;SDS011;3083;51.508;7.966;2022-07-30T11:22:36;14.60;;;10.03;;
6105;SDS011;3083;51.508;7.966;2022-07-30T11:25:04;14.60;;;8.57;;
6105;SDS011;3083;51.508;7.966;2022-07-30T11:27:33;12.17;;;9.70;;
6105;SDS011;3083;51.508;7.966;2022-07-30T11:30:01;12.03;;;8.67;;
6105;SDS011;3083;51.508;7.966;2022-07-30T11:32:30;14.00;;;9.07;;
6105;SDS011;3083;51.508;7.966;2022-07-30T11:35:14;14.00;;;10.57;;
6105;SDS011;3083;51.508;7.966;2022-07-30T11:37:55;12.63;;;9.90;;
6105;SDS011;3083;51.508;7.966;2022-07-30T11:40:27;14.10;;;10.83;;
6105;SDS011;3083;51.508;7.966;2022-07-30T11:45:48;11.83;;;9.70;;
6105;SDS011;3083;51.508;7.966;2022-07-30T11:48:16;14.47;;;9.87;;
6105;SDS011;3083;51.508;7.966;2022-07-30T11:50:44;12.70;;;9.80;;
6105;SDS011;3083;51.508;7.966;2022-07-30T11:53:15;17.60;;;11.23;;
6105;SDS011;3083;51.508;7.966;2022-07-30T11:55:44;14.43;;;10.53;;
6105;SDS011;3083;51.508;7.966;2022-07-30T11:58:22;14.90;;;9.17;;
6105;SDS011;3083;51.508;7.966;2022-07-30T12:00:54;14.97;;;11.17;;
6105;SDS011;3083;51.508;7.966;2022-07-30T12:03:23;17.70;;;10.20;;
6105;SDS011;3083;51.508;7.966;2022-07-30T12:05:51;14.67;;;11.80;;
6105;SDS011;3083;51.508;7.966;2022-07-30T12:08:20;15.73;;;10.10;;
6105;SDS011;3083;51.508;7.966;2022-07-30T12:10:55;12.90;;;9.80;;
6105;SDS011;3083;51.508;7.966;2022-07-30T12:13:23;13.50;;;10.80;;
6105;SDS011;3083;51.508;7.966;2022-07-30T12:15:51;11.70;;;10.00;;
6105;SDS011;3083;51.508;7.966;2022-07-30T12:18:25;12.40;;;10.07;;
6105;SDS011;3083;51.508;7.966;2022-07-30T12:20:57;17.33;;;9.97;;
6105;SDS011;3083;51.508;7.966;2022-07-30T12:23:28;18.53;;;10.37;;
6105;SDS011;3083;51.508;7.966;2022-07-30T12:25:56;17.30;;;10.47;;
6105;SDS011;3083;51.508;7.966;2022-07-30T12:28:24;16.90;;;10.90;;
6105;SDS011;3083;51.508;7.966;2022-07-30T12:30:52;17.37;;;10.10;;
6105;SDS011;3083;51.508;7.966;2022-07-30T12:33:20;14.27;;;10.97;;
6105;SDS011;3083;51.508;7.966;2022-07-30T12:35:48;15.33;;;10.70;;
6105;SDS011;3083;51.508;7.966;2022-07-30T12:38:17;11.30;;;8.77;;
6105;SDS011;3083;51.508;7.966;2022-07-30T12:40:53;15.40;;;11.10;;
6105;SDS011;3083;51.508;7.966;2022-07-30T12:43:41;13.90;;;9.73;;
6105;SDS011;3083;51.508;7.966;2022-07-30T12:46:10;11.80;;;9.17;;
6105;SDS011;3083;51.508;7.966;2022-07-30T12:48:47;16.07;;;9.30;;
6105;SDS011;3083;51.508;7.966;2022-07-30T12:51:15;14.60;;;9.87;;
6105;SDS011;3083;51.508;7.966;2022-07-30T12:53:42;15.63;;;9.73;;
6105;SDS011;3083;51.508;7.966;2022-07-30T12:56:11;14.30;;;9.43;;
6105;SDS011;3083;51.508;7.966;2022-07-30T12:58:39;16.80;;;10.30;;
6105;SDS011;3083;51.508;7.966;2022-07-30T13:01:07;17.97;;;10.97;;
6105;SDS011;3083;51.508;7.966;2022-07-30T13:03:35;15.73;;;9.97;;
6105;SDS011;3083;51.508;7.966;2022-07-30T13:06:16;15.80;;;11.80;;
6105;SDS011;3083;51.508;7.966;2022-07-30T13:08:54;20.00;;;12.23;;
6105;SDS011;3083;51.508;7.966;2022-07-30T13:11:24;19.53;;;13.33;;
6105;SDS011;3083;51.508;7.966;2022-07-30T13:13:52;18.00;;;12.80;;
6105;SDS011;3083;51.508;7.966;2022-07-30T13:16:19;18.00;;;12.93;;
6105;SDS011;3083;51.508;7.966;2022-07-30T13:18:46;20.13;;;13.70;;
6105;SDS011;3083;51.508;7.966;2022-07-30T13:21:14;16.43;;;12.93;;
6105;SDS011;3083;51.508;7.966;2022-07-30T13:23:41;16.93;;;12.60;;
6105;SDS011;3083;51.508;7.966;2022-07-30T13:26:08;17.53;;;12.43;;
6105;SDS011;3083;51.508;7.966;2022-07-30T13:28:37;22.97;;;13.90;;
6105;SDS011;3083;51.508;7.966;2022-07-30T13:31:04;15.10;;;11.80;;
6105;SDS011;3083;51.508;7.966;2022-07-30T13:33:32;18.53;;;12.40;;
6105;SDS011;3083;51.508;7.966;2022-07-30T13:36:00;13.33;;;10.60;;
6105;SDS011;3083;51.508;7.966;2022-07-30T13:38:28;14.20;;;11.57;;
6105;SDS011;3083;51.508;7.966;2022-07-30T13:40:55;13.67;;;9.90;;
6105;SDS011;3083;51.508;7.966;2022-07-30T13:43:22;15.23;;;10.73;;
6105;SDS011;3083;51.508;7.966;2022-07-30T13:45:51;14.60;;;10.40;;
6105;SDS011;3083;51.508;7.966;2022-07-30T13:48:19;11.20;;;9.17;;
6105;SDS011;3083;51.508;7.966;2022-07-30T13:50:46;10.50;;;8.40;;
6105;SDS011;3083;51.508;7.966;2022-07-30T13:53:13;11.00;;;8.47;;
6105;SDS011;3083;51.508;7.966;2022-07-30T13:55:40;10.73;;;8.10;;
6105;SDS011;3083;51.508;7.966;2022-07-30T13:58:07;10.03;;;8.20;;
6105;SDS011;3083;51.508;7.966;2022-07-30T14:00:35;9.80;;;8.50;;
6105;SDS011;3083;51.508;7.966;2022-07-30T14:03:05;12.43;;;9.10;;
6105;SDS011;3083;51.508;7.966;2022-07-30T14:05:33;9.23;;;8.33;;
6105;SDS011;3083;51.508;7.966;2022-07-30T14:08:01;11.70;;;8.50;;
6105;SDS011;3083;51.508;7.966;2022-07-30T14:10:29;10.03;;;8.93;;
6105;SDS011;3083;51.508;7.966;2022-07-30T14:12:57;11.03;;;9.13;;
6105;SDS011;3083;51.508;7.966;2022-07-30T14:15:25;10.93;;;9.60;;
6105;SDS011;3083;51.508;7.966;2022-07-30T14:17:55;9.43;;;8.43;;
6105;SDS011;3083;51.508;7.966;2022-07-30T14:20:24;10.70;;;8.33;;
6105;SDS011;3083;51.508;7.966;2022-07-30T14:22:51;9.87;;;8.43;;
6105;SDS011;3083;51.508;7.966;2022-07-30T14:25:19;12.50;;;9.63;;
6105;SDS011;3083;51.508;7.966;2022-07-30T14:27:46;9.70;;;8.70;;
6105;SDS011;3083;51.508;7.966;2022-07-30T14:30:14;11.57;;;8.27;;
6105;SDS011;3083;51.508;7.966;2022-07-30T14:32:41;11.47;;;7.70;;
6105;SDS011;3083;51.508;7.966;2022-07-30T14:35:08;9.30;;;8.10;;
6105;SDS011;3083;51.508;7.966;2022-07-30T14:37:37;8.70;;;7.80;;
6105;SDS011;3083;51.508;7.966;2022-07-30T14:40:06;8.47;;;7.43;;
6105;SDS011;3083;51.508;7.966;2022-07-30T14:42:35;12.57;;;7.17;;
6105;SDS011;3083;51.508;7.966;2022-07-30T14:45:04;11.10;;;7.20;;
6105;SDS011;3083;51.508;7.966;2022-07-30T14:47:32;9.43;;;7.00;;
6105;SDS011;3083;51.508;7.966;2022-07-30T14:49:58;10.10;;;6.93;;
6105;SDS011;3083;51.508;7.966;2022-07-30T14:52:25;10.90;;;7.63;;
6105;SDS011;3083;51.508;7.966;2022-07-30T14:54:54;11.43;;;7.40;;
6105;SDS011;3083;51.508;7.966;2022-07-30T14:57:21;8.97;;;6.27;;
6105;SDS011;3083;51.508;7.966;2022-07-30T14:59:48;8.43;;;5.30;;
6105;SDS011;3083;51.508;7.966;2022-07-30T15:02:15;9.87;;;5.97;;
6105;SDS011;3083;51.508;7.966;2022-07-30T15:04:42;8.73;;;6.13;;
6105;SDS011;3083;51.508;7.966;2022-07-30T15:07:12;7.60;;;5.70;;
6105;SDS011;3083;51.508;7.966;2022-07-30T15:09:39;7.47;;;5.30;;
6105;SDS011;3083;51.508;7.966;2022-07-30T15:12:08;7.10;;;5.23;;
6105;SDS011;3083;51.508;7.966;2022-07-30T15:14:35;9.73;;;4.47;;
6105;SDS011;3083;51.508;7.966;2022-07-30T15:17:03;6.20;;;4.40;;
6105;SDS011;3083;51.508;7.966;2022-07-30T15:19:30;5.20;;;3.70;;
6105;SDS011;3083;51.508;7.966;2022-07-30T15:21:57;6.07;;;3.57;;